Time;durP1;ratioP1;P1;durP2;ratioP2;P2;SDS_P1;SDS_P2;PMS_P1;PMS_P2;Temp;Humidity;BMP_temperature;BMP_pressure;BME280_temperature;BME280_humidity;BME280_pressure;Samples;Min_cycle;Max_cycle;Signal;HPM_P1;HPM_P2
2023/03/07 00:02:14;;;;;;;;;;;;;;;-144.99;100.00;52499.06;5071959;28;19924;-66
2023/03/07 00:04:44;;;;;;;;;;;;;;;-144.99;100.00;52533.69;5072661;28;19925;-65
2023/03/07 00:07:10;;;;;;;;;;;;;;;-144.99;100.00;52507.19;5070672;28;20009;-64
2023/03/07 00:09:38;;;;;;;;;;;;;;;-144.99;100.00;52527.59;5063315;28;19977;-65
2023/03/07 00:12:05;;;;;;;;;;;;;;;-144.99;100.00;52541.84;5070966;28;20086;-65
2023/03/07 00:14:31;;;;;;;;;;;;;;;-144.99;100.00;52505.16;5071720;28;19978;-67
2023/03/07 00:16:58;;;;;;;;;;;;;;;-144.99;100.00;52521.47;5071415;28;19934;-65
2023/03/07 00:19:24;;;;;;;;;;;;;;;-144.99;100.00;52525.56;5068018;28;20171;-65
2023/03/07 00:21:51;;;;;;;;;;;;;;;-144.99;100.00;52497.00;5071172;28;20393;-64
2023/03/07 00:24:17;;;;;;;;;;;;;;;-144.99;100.00;52558.16;5070950;28;19931;-64
2023/03/07 00:26:45;;;;;;;;;;;;;;;-144.99;100.00;52513.31;5066479;28;19925;-66
2023/03/07 00:29:12;;;;;;;;;;;;;;;-144.99;100.00;52541.84;5064425;28;19978;-66
2023/03/07 00:31:38;;;;;;;;;;;;;;;-144.99;100.00;52490.91;5071641;28;20125;-66
2023/03/07 00:34:05;;;;;;;;;;;;;;;-144.99;100.00;52523.50;5079430;28;19925;-66
2023/03/07 00:36:31;;;;;;;;;;;;;;;-144.99;100.00;52480.72;5072130;28;20181;-65
2023/03/07 00:39:00;;;;;;;;;;;;;;;-144.99;100.00;52529.63;5066350;28;19925;-66
2023/03/07 00:41:28;;;;;;;;;;;;;;;-144.99;100.00;52501.09;5072502;28;19942;-68
2023/03/07 00:43:56;;;;;;;;;;;;;;;-144.99;100.00;52552.03;5072338;28;19951;-66
2023/03/07 00:46:23;;;;;;;;;;;;;;;-144.99;100.00;52558.16;5075644;28;20424;-66
2023/03/07 00:48:50;;;;;;;;;;;;;;;-144.99;100.00;52537.78;5076149;28;20382;-65
2023/03/07 00:51:17;;;;;;;;;;;;;;;-144.99;100.00;52541.84;5070230;28;19947;-66
2023/03/07 00:53:44;;;;;;;;;;;;;;;-144.99;100.00;52513.31;5073700;28;19928;-66
2023/03/07 00:56:12;;;;;;;;;;;;;;;-144.99;100.00;52558.16;5069990;28;20945;-65
2023/03/07 00:58:39;;;;;;;;;;;;;;;-144.99;100.00;52513.31;5067060;28;19970;-65
2023/03/07 01:01:08;;;;;;;;;;;;;;;-144.99;100.00;52529.63;5072686;28;19925;-67
2023/03/07 01:03:35;;;;;;;;;;;;;;;-144.99;100.00;52513.31;5087833;23;19928;-70
2023/03/07 01:06:02;;;;;;;;;;;;;;;-144.99;100.00;52562.25;5072345;28;19924;-72
2023/03/07 01:08:28;;;;;;;;;;;;;;;-144.99;100.00;52521.47;5071216;28;19951;-68
2023/03/07 01:10:58;;;;;;;;;;;;;;;-144.99;100.00;52492.94;5070107;28;20160;-67
2023/03/07 01:13:24;;;;;;;;;;;;;;;-144.99;100.00;52513.31;5068223;28;20265;-68
2023/03/07 01:15:51;;;;;;;;;;;;;;;-144.99;100.00;52464.41;5071971;28;19951;-69
2023/03/07 01:18:19;;;;;;;;;;;;;;;-144.99;100.00;52537.78;5069137;28;19925;-68
2023/03/07 01:20:45;;;;;;;;;;;;;;;-144.99;100.00;52480.72;5071506;28;19929;-68
2023/03/07 01:23:12;;;;;;;;;;;;;;;-144.99;100.00;52527.59;5070846;28;19925;-68
2023/03/07 01:25:39;;;;;;;;;;;;;;;-144.99;100.00;52513.31;5070367;28;20392;-68
2023/03/07 01:28:06;;;;;;;;;;;;;;;-144.99;100.00;52497.00;5064844;28;20029;-68
2023/03/07 01:30:32;;;;;;;;;;;;;;;-144.99;100.00;52550.00;5067055;28;19994;-68
2023/03/07 01:32:59;;;;;;;;;;;;;;;-144.99;100.00;52492.94;5069104;28;19924;-68
2023/03/07 01:35:27;;;;;;;;;;;;;;;-144.99;100.00;52525.56;5071820;28;19966;-68
2023/03/07 01:37:54;;;;;;;;;;;;;;;-144.99;100.00;52513.31;5070413;28;19924;-68
2023/03/07 01:40:22;;;;;;;;;;;;;;;-144.99;100.00;52484.78;5068929;28;20458;-68
2023/03/07 01:42:48;;;;;;;;;;;;;;;-144.99;100.00;52505.16;5068782;28;20329;-70
2023/03/07 01:45:33;;;;;;;;;;;;;;;-144.99;100.00;52541.84;5069009;28;20396;-68
2023/03/07 01:48:00;;;;;;;;;;;;;;;-144.99;100.00;52488.84;5063926;28;19924;-66
2023/03/07 01:50:28;;;;;;;;;;;;;;;-144.99;100.00;52484.78;5065936;28;20367;-69
2023/03/07 01:52:57;;;;;;;;;;;;;;;-144.99;100.00;52501.09;5067304;28;19985;-68
2023/03/07 01:55:25;;;;;;;;;;;;;;;-144.99;100.00;52521.47;5069093;28;19932;-68
2023/03/07 01:57:52;;;;;;;;;;;;;;;-144.99;100.00;52492.94;5070447;28;19928;-66
2023/03/07 02:00:27;;;;;;;;;;;;;;;-144.99;100.00;52513.31;5069008;28;20273;-68
2023/03/07 02:03:00;;;;;;;;;;;;;;;-144.99;100.00;52537.78;5071032;28;19979;-70
2023/03/07 02:05:31;;;;;;;;;;;;;;;-144.99;100.00;52533.69;5070788;28;20380;-68
2023/03/07 02:07:59;;;;;;;;;;;;;;;-144.99;100.00;52480.72;5064776;28;19931;-68
2023/03/07 02:10:26;;;;;;;;;;;;;;;-144.99;100.00;52488.84;5069579;28;19958;-68
2023/03/07 02:12:53;;;;;;;;;;;;;;;-144.99;100.00;52511.28;5071186;28;20285;-70
2023/03/07 02:15:20;;;;;;;;;;;;;;;-144.99;100.00;52505.16;5082975;28;19925;-68
2023/03/07 02:17:47;;;;;;;;;;;;;;;-144.99;100.00;52505.16;5085596;28;19958;-68
2023/03/07 02:20:22;;;;;;;;;;;;;;;-144.99;100.00;52509.25;5084585;28;19947;-69
2023/03/07 02:22:50;;;;;;;;;;;;;;;-144.99;100.00;52509.25;5086340;28;19963;-70
2023/03/07 02:25:19;;;;;;;;;;;;;;;-144.99;100.00;52525.56;5090102;28;19942;-70
2023/03/07 02:27:49;;;;;;;;;;;;;;;-144.99;100.00;52513.31;5089767;28;19925;-69
2023/03/07 02:30:16;;;;;;;;;;;;;;;-144.99;100.00;52484.78;5081203;28;19913;-69
2023/03/07 02:32:42;;;;;;;;;;;;;;;-144.99;100.00;52539.81;5086691;28;19925;-68
2023/03/07 02:35:21;;;;;;;;;;;;;;;-144.99;100.00;52492.94;5091464;28;20387;-68
2023/03/07 02:37:49;;;;;;;;;;;;;;;-144.99;100.00;52509.25;5090879;28;19947;-67
2023/03/07 02:40:18;;;;;;;;;;;;;;;-144.99;100.00;52507.19;5089413;28;19959;-68
2023/03/07 02:42:46;;;;;;;;;;;;;;;-144.99;100.00;52521.47;5089162;28;20162;-67
2023/03/07 02:45:15;;;;;;;;;;;;;;;-144.99;100.00;52509.25;5088560;28;19966;-67
2023/03/07 02:47:42;;;;;;;;;;;;;;;-144.99;100.00;52513.31;5091427;28;19925;-67
2023/03/07 02:50:09;;;;;;;;;;;;;;;-144.99;100.00;52488.84;5077130;28;19928;-68
2023/03/07 02:52:36;;;;;;;;;;;;;;;-144.99;100.00;52529.63;5071672;28;20413;-67
2023/03/07 02:55:03;;;;;;;;;;;;;;;-144.99;100.00;52511.28;5073893;28;19925;-67
2023/03/07 02:57:29;;;;;;;;;;;;;;;-144.99;100.00;52484.78;5073941;28;19924;-67
2023/03/07 02:59:56;;;;;;;;;;;;;;;-144.99;100.00;52509.25;5067068;28;19970;-67
2023/03/07 03:02:24;;;;;;;;;;;;;;;-144.99;100.00;52529.63;5069279;28;19931;-67
2023/03/07 03:04:50;;;;;;;;;;;;;;;-144.99;100.00;52537.78;5074338;28;19993;-67
2023/03/07 03:07:17;;;;;;;;;;;;;;;-144.99;100.00;52537.78;5073583;28;19924;-67
2023/03/07 03:09:43;;;;;;;;;;;;;;;-144.99;100.00;52484.78;5071924;28;20340;-67
2023/03/07 03:12:10;;;;;;;;;;;;;;;-144.99;100.00;52521.47;5071950;28;19978;-67
2023/03/07 03:14:37;;;;;;;;;;;;;;;-144.99;100.00;52490.91;5071649;28;20399;-67
2023/03/07 03:17:03;;;;;;;;;;;;;;;-144.99;100.00;52507.19;5076913;28;19970;-67
2023/03/07 03:19:31;;;;;;;;;;;;;;;-144.99;100.00;52480.72;5058040;28;19924;-67
2023/03/07 03:21:58;;;;;;;;;;;;;;;-144.99;100.00;52497.00;5071192;28;19977;-67
2023/03/07 03:24:25;;;;;;;;;;;;;;;-144.99;100.00;52513.31;5081337;28;19979;-67
2023/03/07 03:26:51;;;;;;;;;;;;;;;-144.99;100.00;52480.72;5073468;28;20274;-67
2023/03/07 03:29:18;;;;;;;;;;;;;;;-144.99;100.00;52492.94;5071623;28;19925;-67
2023/03/07 03:31:45;;;;;;;;;;;;;;;-144.99;100.00;52517.41;5073443;28;19925;-68
2023/03/07 03:34:13;;;;;;;;;;;;;;;-144.99;100.00;52517.41;5072934;28;19974;-67
2023/03/07 03:36:41;;;;;;;;;;;;;;;-144.99;100.00;52509.25;5068656;28;20046;-68
2023/03/07 03:39:09;;;;;;;;;;;;;;;-144.99;100.00;52509.25;5064956;28;19924;-69
2023/03/07 03:41:36;;;;;;;;;;;;;;;-144.99;100.00;52490.91;5073278;28;19935;-65
2023/03/07 03:44:03;;;;;;;;;;;;;;;-144.99;100.00;52492.94;5072752;28;20344;-65
2023/03/07 03:46:29;;;;;;;;;;;;;;;-144.99;100.00;52513.31;5072782;28;20804;-66
2023/03/07 03:48:56;;;;;;;;;;;;;;;-144.99;100.00;52543.91;5071122;28;19964;-67
2023/03/07 03:51:24;;;;;;;;;;;;;;;-144.99;100.00;52529.63;5064336;28;20466;-67
2023/03/07 03:53:52;;;;;;;;;;;;;;;-144.99;100.00;52482.75;5067002;28;19978;-67
2023/03/07 03:56:19;;;;;;;;;;;;;;;-144.99;100.00;52521.47;5073085;28;19955;-67
2023/03/07 03:58:47;;;;;;;;;;;;;;;-144.99;100.00;52492.94;5071762;28;19985;-67
2023/03/07 04:01:13;;;;;;;;;;;;;;;-144.99;100.00;52492.94;5069739;28;19968;-67
2023/03/07 04:03:41;;;;;;;;;;;;;;;-144.99;100.00;52515.34;5068436;28;19928;-67
2023/03/07 04:06:09;;;;;;;;;;;;;;;-144.99;100.00;52488.84;5071915;28;19932;-67
2023/03/07 04:08:37;;;;;;;;;;;;;;;-144.99;100.00;52517.41;5064379;28;19932;-70
2023/03/07 04:11:05;;;;;;;;;;;;;;;-144.99;100.00;52490.91;5071627;28;19951;-70
2023/03/07 04:13:32;;;;;;;;;;;;;;;-144.99;100.00;52509.25;5072924;28;19933;-70
2023/03/07 04:15:59;;;;;;;;;;;;;;;-144.99;100.00;52525.56;5073232;28;19924;-70
2023/03/07 04:18:25;;;;;;;;;;;;;;;-144.99;100.00;52484.78;5069811;28;19982;-69
2023/03/07 04:20:52;;;;;;;;;;;;;;;-144.99;100.00;52533.69;5073090;28;19925;-69
2023/03/07 04:23:19;;;;;;;;;;;;;;;-144.99;100.00;52533.69;5072494;28;19924;-70
2023/03/07 04:25:49;;;;;;;;;;;;;;;-144.99;100.00;52497.00;5065852;28;19932;-68
2023/03/07 04:28:17;;;;;;;;;;;;;;;-144.99;100.00;52494.97;5067282;28;20399;-69
2023/03/07 04:30:44;;;;;;;;;;;;;;;-144.99;100.00;52468.47;5072719;28;19940;-69
2023/03/07 04:33:11;;;;;;;;;;;;;;;-144.99;100.00;52517.41;5069809;28;19929;-70
2023/03/07 04:35:38;;;;;;;;;;;;;;;-144.99;100.00;52529.63;5069314;28;19940;-69
2023/03/07 04:38:05;;;;;;;;;;;;;;;-144.99;100.00;52525.56;5071759;28;19932;-68
2023/03/07 04:40:32;;;;;;;;;;;;;;;-144.99;100.00;52515.34;5079643;28;19932;-69
2023/03/07 04:42:58;;;;;;;;;;;;;;;-144.99;100.00;52517.41;5073318;28;20354;-68
2023/03/07 04:45:26;;;;;;;;;;;;;;;-144.99;100.00;52482.75;5071400;28;19970;-70
2023/03/07 04:47:53;;;;;;;;;;;;;;;-144.99;100.00;52519.44;5072808;28;19977;-69
2023/03/07 04:50:20;;;;;;;;;;;;;;;-144.99;100.00;52513.31;5081702;28;19924;-69
2023/03/07 04:52:46;;;;;;;;;;;;;;;-144.99;100.00;52513.31;5093593;28;19997;-72
2023/03/07 04:55:13;;;;;;;;;;;;;;;-144.99;100.00;52513.31;5089528;28;19932;-68
2023/03/07 04:57:40;;;;;;;;;;;;;;;-144.99;100.00;52513.31;5073256;28;19928;-67
2023/03/07 05:00:09;;;;;;;;;;;;;;;-144.99;100.00;52474.59;5073154;28;20202;-68
2023/03/07 05:02:36;;;;;;;;;;;;;;;-144.99;100.00;52476.63;5075838;28;19968;-68
2023/03/07 05:05:03;;;;;;;;;;;;;;;-144.99;100.00;52556.13;5076614;28;19946;-68
2023/03/07 05:07:31;;;;;;;;;;;;;;;-144.99;100.00;52501.09;5072480;28;19982;-68
2023/03/07 05:09:57;;;;;;;;;;;;;;;-144.99;100.00;52503.13;5070515;28;19928;-69
2023/03/07 05:12:24;;;;;;;;;;;;;;;-144.99;100.00;52488.84;5072585;28;19925;-66
2023/03/07 05:14:51;;;;;;;;;;;;;;;-144.99;100.00;52501.09;5069770;28;19925;-67
2023/03/07 05:17:18;;;;;;;;;;;;;;;-144.99;100.00;52541.84;5068005;28;19977;-67
2023/03/07 05:19:46;;;;;;;;;;;;;;;-144.99;100.00;52505.16;5071059;28;20270;-68
2023/03/07 05:22:13;;;;;;;;;;;;;;;-144.99;100.00;52509.25;5068494;28;20321;-68
2023/03/07 05:24:39;;;;;;;;;;;;;;;-144.99;100.00;52497.00;5072291;28;19925;-68
2023/03/07 05:27:06;;;;;;;;;;;;;;;-144.99;100.00;52490.91;5071467;28;19942;-70
2023/03/07 05:29:32;;;;;;;;;;;;;;;-144.99;100.00;52513.31;5070481;28;19932;-71
2023/03/07 05:32:00;;;;;;;;;;;;;;;-144.99;98.27;52484.78;5070674;28;19925;-70
2023/03/07 05:34:26;;;;;;;;;;;;;;;-144.99;97.64;52517.41;5071854;28;20123;-71
2023/03/07 05:36:57;;;;;;;;;;;;;;;-144.99;98.04;52492.94;5071345;28;19974;-72
2023/03/07 05:39:23;;;;;;;;;;;;;;;-144.99;97.51;52507.19;5063367;28;19948;-71
2023/03/07 05:41:50;;;;;;;;;;;;;;;-144.99;97.60;52499.06;5071344;28;19979;-72
2023/03/07 05:44:17;;;;;;;;;;;;;;;-144.99;97.80;52468.47;5065098;28;19986;-71
2023/03/07 05:46:43;;;;;;;;;;;;;;;-144.99;98.07;52480.72;5068000;28;19928;-71
2023/03/07 05:49:10;;;;;;;;;;;;;;;-144.99;98.78;52488.84;5069157;28;19936;-72
2023/03/07 05:51:36;;;;;;;;;;;;;;;-144.99;99.18;52541.84;5065560;28;19982;-72
2023/03/07 05:54:04;;;;;;;;;;;;;;;-144.99;97.99;52533.69;5066553;28;19954;-73
2023/03/07 05:56:31;;;;;;;;;;;;;;;-144.99;97.45;52525.56;5071000;28;19974;-72
2023/03/07 05:58:57;;;;;;;;;;;;;;;-144.99;97.35;52517.41;5070003;28;19924;-70
2023/03/07 06:01:24;;;;;;;;;;;;;;;-144.99;97.64;52501.09;5072230;28;19928;-75
2023/03/07 06:03:51;;;;;;;;;;;;;;;-144.99;97.08;52505.16;5064993;28;19924;-74
2023/03/07 06:06:17;;;;;;;;;;;;;;;-144.99;96.96;52521.47;5066321;28;19931;-75
2023/03/07 06:08:44;;;;;;;;;;;;;;;-144.99;96.54;52464.41;5070456;28;20027;-74
2023/03/07 06:11:12;;;;;;;;;;;;;;;-144.99;96.54;52497.00;5071108;28;19928;-74
2023/03/07 06:13:38;;;;;;;;;;;;;;;-144.99;96.91;52492.94;5068224;28;20363;-76
2023/03/07 06:16:06;;;;;;;;;;;;;;;-144.99;97.22;52517.41;4362186;28;10000737;-76
2023/03/07 06:18:32;;;;;;;;;;;;;;;-144.99;96.66;52517.41;5057459;28;19980;-76
2023/03/07 06:20:59;;;;;;;;;;;;;;;-144.99;96.66;52503.13;5072585;28;19943;-76
2023/03/07 06:23:26;;;;;;;;;;;;;;;-144.99;96.65;52523.50;5071374;28;19929;-76
2023/03/07 06:25:53;;;;;;;;;;;;;;;-144.99;96.79;52509.25;5075207;28;19955;-76
2023/03/07 06:28:21;;;;;;;;;;;;;;;-144.99;96.33;52525.56;5080738;28;20321;-77
2023/03/07 06:30:48;;;;;;;;;;;;;;;-144.99;96.08;52505.16;5085879;28;19950;-76
2023/03/07 06:33:15;;;;;;;;;;;;;;;-144.99;95.99;52545.94;5084684;28;20146;-76
2023/03/07 06:35:42;;;;;;;;;;;;;;;-144.99;96.26;52476.63;5087901;28;20179;-76
2023/03/07 06:38:09;;;;;;;;;;;;;;;-144.99;96.04;52507.19;5076565;28;20226;-76
2023/03/07 06:40:35;;;;;;;;;;;;;;;-144.99;95.95;52484.78;5072607;28;19939;-76
2023/03/07 06:43:02;;;;;;;;;;;;;;;-144.99;96.07;52517.41;5091459;28;19964;-76
2023/03/07 06:45:30;;;;;;;;;;;;;;;-144.99;96.44;52484.78;5083082;28;19932;-76
2023/03/07 06:47:57;;;;;;;;;;;;;;;-144.99;96.85;52517.41;5079412;28;19928;-76
2023/03/07 06:50:24;;;;;;;;;;;;;;;-144.99;97.77;52556.13;5069161;28;20156;-77
2023/03/07 06:52:50;;;;;;;;;;;;;;;-144.99;99.42;52488.84;5073419;28;19925;-77
2023/03/07 06:55:17;;;;;;;;;;;;;;;-144.99;100.00;52484.78;5071551;28;19935;-77
2023/03/07 06:57:44;;;;;;;;;;;;;;;-144.99;100.00;52513.31;5066792;28;19928;-77
2023/03/07 07:00:11;;;;;;;;;;;;;;;-144.99;100.00;52521.47;5083266;28;19978;-77
2023/03/07 07:02:39;;;;;;;;;;;;;;;-144.99;100.00;52509.25;5082188;28;19923;-77
2023/03/07 07:05:06;;;;;;;;;;;;;;;-144.99;100.00;52480.72;5088103;28;19947;-78
2023/03/07 07:07:33;;;;;;;;;;;;;;;-144.99;100.00;52492.94;5088425;28;19935;-77
2023/03/07 07:10:00;;;;;;;;;;;;;;;-144.99;100.00;52562.25;5080025;28;19948;-79
2023/03/07 07:12:26;;;;;;;;;;;;;;;-144.99;100.00;52482.75;5090553;28;19912;-77
2023/03/07 07:14:53;;;;;;;;;;;;;;;-144.99;100.00;52507.19;5083492;28;19924;-77
2023/03/07 07:17:20;;;;;;;;;;;;;;;-144.99;100.00;52517.41;5085957;28;19933;-77
2023/03/07 07:19:48;;;;;;;;;;;;;;;-144.99;100.00;52501.09;5081989;28;19924;-77
2023/03/07 07:22:16;;;;;;;;;;;;;;;-144.99;100.00;52509.25;5084204;28;19929;-77
2023/03/07 07:24:43;;;;;;;;;;;;;;;-144.99;100.00;52472.56;5085383;28;20007;-77
2023/03/07 07:27:10;;;;;;;;;;;;;;;-144.99;100.00;52476.63;5085932;28;19981;-78
2023/03/07 07:29:36;;;;;;;;;;;;;;;-144.99;100.00;52474.59;5086303;28;20203;-76
2023/03/07 07:32:03;;;;;;;;;;;;;;;-144.99;100.00;52488.84;5089668;28;19928;-78
2023/03/07 07:34:29;;;;;;;;;;;;;;;-144.99;100.00;52484.78;5084531;28;19921;-80
2023/03/07 07:36:57;;;;;;;;;;;;;;;-144.99;99.60;52478.66;5089933;28;19912;-79
2023/03/07 07:39:24;;;;;;;;;;;;;;;-144.99;98.40;52501.09;5089037;28;20340;-79
2023/03/07 07:41:50;;;;;;;;;;;;;;;-144.99;98.26;52533.69;5092583;28;19929;-79
2023/03/07 07:44:17;;;;;;;;;;;;;;;-144.99;97.81;52480.72;5093738;28;19940;-79
2023/03/07 07:46:43;;;;;;;;;;;;;;;-144.99;98.32;52484.78;5090454;28;19928;-78
2023/03/07 07:49:10;;;;;;;;;;;;;;;-144.99;98.26;52488.84;5089345;28;19924;-78
2023/03/07 07:51:38;;;;;;;;;;;;;;;-144.99;97.92;52480.72;5077673;28;19932;-78
2023/03/07 07:54:06;;;;;;;;;;;;;;;-144.99;97.64;52513.31;4726693;28;9999921;-78
2023/03/07 07:56:33;;;;;;;;;;;;;;;-144.99;98.56;52460.31;5077269;28;19924;-78
2023/03/07 07:58:59;;;;;;;;;;;;;;;-144.99;99.08;52472.56;5076342;28;19928;-78
2023/03/07 08:01:26;;;;;;;;;;;;;;;-144.99;99.70;52456.25;5084471;28;19924;-78
2023/03/07 08:03:53;;;;;;;;;;;;;;;-144.99;99.26;52492.94;5085937;28;19925;-78
2023/03/07 08:06:20;;;;;;;;;;;;;;;-144.99;99.25;52488.84;5076549;28;19932;-78
2023/03/07 08:08:46;;;;;;;;;;;;;;;-144.99;98.67;52474.59;5078994;28;19928;-78
2023/03/07 08:11:14;;;;;;;;;;;;;;;-144.99;97.82;52509.25;5079912;28;19929;-78
2023/03/07 08:13:41;;;;;;;;;;;;;;;-144.99;97.02;52492.94;5079862;28;19929;-77
2023/03/07 08:16:12;;;;;;;;;;;;;;;-144.99;96.78;52503.13;5067749;28;19943;-77
2023/03/07 08:18:38;;;;;;;;;;;;;;;-144.99;96.04;52468.47;5071964;28;19990;-78
2023/03/07 08:21:05;;;;;;;;;;;;;;;-144.99;94.97;52499.06;5075710;28;19955;-77
2023/03/07 08:23:31;;;;;;;;;;;;;;;-144.99;95.53;52492.94;5082429;28;19936;-78
2023/03/07 08:26:01;;;;;;;;;;;;;;;-144.99;94.93;52462.34;5079164;28;19951;-78
2023/03/07 08:28:29;;;;;;;;;;;;;;;-144.99;94.17;52513.31;5085925;28;19928;-78
2023/03/07 08:30:56;;;;;;;;;;;;;;;-144.99;93.10;52478.66;5078728;28;20313;-78
2023/03/07 08:33:22;;;;;;;;;;;;;;;-144.99;92.52;52452.16;5082369;28;19928;-78
2023/03/07 08:35:49;;;;;;;;;;;;;;;-144.99;91.96;52525.56;5083651;28;19925;-80
2023/03/07 08:38:15;;;;;;;;;;;;;;;-144.99;91.97;52441.97;5082398;28;19924;-78
2023/03/07 08:40:42;;;;;;;;;;;;;;;-144.99;92.11;52488.84;5069408;28;19929;-78
2023/03/07 08:43:08;;;;;;;;;;;;;;;-144.99;91.40;52494.97;5068524;28;19982;-78
2023/03/07 08:45:36;;;;;;;;;;;;;;;-144.99;91.11;52480.72;5078872;28;20053;-78
2023/03/07 08:48:03;;;;;;;;;;;;;;;-144.99;90.21;52492.94;5078209;28;19928;-79
2023/03/07 08:50:30;;;;;;;;;;;;;;;-144.99;89.95;52460.31;5081584;28;19952;-77
2023/03/07 08:52:56;;;;;;;;;;;;;;;-144.99;89.78;52476.63;5083812;28;19932;-77
2023/03/07 08:55:23;;;;;;;;;;;;;;;-144.99;89.72;52468.47;5087310;28;19928;-77
2023/03/07 08:57:50;;;;;;;;;;;;;;;-144.99;89.54;52456.25;5074842;28;19929;-77
2023/03/07 09:00:17;;;;;;;;;;;;;;;-144.99;90.00;52513.31;5079638;28;19997;-77
2023/03/07 09:02:46;;;;;;;;;;;;;;;-144.99;90.54;52529.63;5073948;28;19925;-77
2023/03/07 09:05:12;;;;;;;;;;;;;;;-144.99;90.49;52501.09;5078512;28;19924;-77
2023/03/07 09:07:39;;;;;;;;;;;;;;;-144.99;91.24;52513.31;5084801;28;20534;-77
2023/03/07 09:10:06;;;;;;;;;;;;;;;-144.99;92.93;52478.66;5084817;28;19928;-76
2023/03/07 09:12:33;;;;;;;;;;;;;;;-144.99;94.41;52464.41;5079966;28;20373;-77
2023/03/07 09:14:59;;;;;;;;;;;;;;;-144.99;96.70;52509.25;5075320;28;19936;-77
2023/03/07 09:17:26;;;;;;;;;;;;;;;-144.99;97.96;52476.63;5084993;28;20200;-76
2023/03/07 09:19:55;;;;;;;;;;;;;;;-144.99;99.32;52501.09;5073664;28;19952;-77
2023/03/07 09:22:21;;;;;;;;;;;;;;;-144.99;100.00;52480.72;5072341;28;20408;-77
2023/03/07 09:24:48;;;;;;;;;;;;;;;-144.99;99.45;52460.31;5066741;28;19932;-77
2023/03/07 09:27:15;;;;;;;;;;;;;;;-144.99;98.28;52492.94;5064250;28;19936;-77
2023/03/07 09:29:42;;;;;;;;;;;;;;;-144.99;98.50;52513.31;5070712;28;20450;-77
2023/03/07 09:32:08;;;;;;;;;;;;;;;-144.99;98.98;52517.41;5070991;28;19951;-76
2023/03/07 09:34:35;;;;;;;;;;;;;;;-144.99;98.67;52488.84;5067777;28;19928;-76
2023/03/07 09:37:03;;;;;;;;;;;;;;;-144.99;97.66;52550.00;5068804;28;19925;-76
2023/03/07 09:39:29;;;;;;;;;;;;;;;-144.99;97.19;52517.41;5071700;28;19928;-76
2023/03/07 09:42:03;;;;;;;;;;;;;;;-144.99;96.92;52480.72;5076768;28;19929;-76
2023/03/07 09:44:36;;;;;;;;;;;;;;;-144.99;96.76;52439.94;5084872;28;19966;-76
2023/03/07 09:47:16;;;;;;;;;;;;;;;-144.99;96.43;52486.81;5084013;28;19993;-76
2023/03/07 09:49:46;;;;;;;;;;;;;;;-144.99;95.75;52468.47;5079243;28;19928;-76
2023/03/07 09:52:14;;;;;;;;;;;;;;;-144.99;94.66;52505.16;5066894;28;19982;-76
2023/03/07 09:54:46;;;;;;;;;;;;;;;-144.99;93.81;52480.72;5064877;28;19982;-76
2023/03/07 09:57:16;;;;;;;;;;;;;;;-144.99;92.93;52486.81;5062542;28;19929;-75
2023/03/07 09:59:44;;;;;;;;;;;;;;;-144.99;91.75;52482.75;5068897;28;19976;-75
2023/03/07 10:02:14;;;;;;;;;;;;;;;-144.99;91.14;52478.66;5070376;28;19928;-76
2023/03/07 10:04:46;;;;;;;;;;;;;;;-144.99;90.83;52492.94;5065010;28;19932;-76
2023/03/07 10:07:15;;;;;;;;;;;;;;;-144.99;90.26;52507.19;5065876;28;20156;-76
2023/03/07 10:09:42;;;;;;;;;;;;;;;-144.99;90.12;52519.44;5058662;28;19960;-76
2023/03/07 10:12:20;;;;;;;;;;;;;;;-144.99;92.35;52501.09;5061694;28;19928;-77
2023/03/07 10:14:54;;;;;;;;;;;;;;;-144.99;94.51;52505.16;5069393;28;19935;-78
2023/03/07 10:17:29;;;;;;;;;;;;;;;-144.99;98.23;52482.75;5061758;28;19999;-78
2023/03/07 10:20:00;;;;;;;;;;;;;;;-144.99;99.72;52476.63;5068900;28;19939;-76
2023/03/07 10:22:32;;;;;;;;;;;;;;;-144.99;99.40;52497.00;5068796;28;20327;-75
2023/03/07 10:25:08;;;;;;;;;;;;;;;-144.99;96.50;52466.44;5079462;28;19925;-76
2023/03/07 10:27:34;;;;;;;;;;;;;;;-144.99;89.72;52482.75;5074629;28;19943;-77
2023/03/07 10:30:09;;;;;;;;;;;;;;;-144.99;86.32;52399.19;5083698;28;19979;-76
2023/03/07 10:32:38;;;;;;;;;;;;;;;-144.99;79.60;52354.34;5083336;28;19936;-77
2023/03/07 10:35:14;;;;;;;;;;;;;;;-144.99;76.71;52342.09;5073447;28;19932;-77
2023/03/07 10:37:48;;;;;;;;;;;;;;;-144.99;76.14;52309.50;5071342;28;20427;-77
2023/03/07 10:40:18;;;;;;;;;;;;;;;-144.99;75.15;52399.19;5058770;28;19935;-77
2023/03/07 10:42:45;;;;;;;;;;;;;;;-144.99;74.94;52431.78;5068571;28;19974;-77
2023/03/07 10:45:12;;;;;;;;;;;;;;;-144.99;75.86;52431.78;5069290;28;20003;-77
2023/03/07 10:47:39;;;;;;;;;;;;;;;-144.99;72.92;52342.09;5063330;28;19936;-77
2023/03/07 10:50:16;;;;;;;;;;;;;;;-144.99;69.23;52333.94;5070077;28;20396;-77
2023/03/07 10:52:47;;;;;;;;;;;;;;;-144.99;68.96;52293.19;5070017;28;19960;-77
2023/03/07 10:55:29;;;;;;;;;;;;;;;-144.99;66.81;52348.22;5060008;28;19929;-78
2023/03/07 10:58:11;;;;;;;;;;;;;;;-144.99;66.61;52431.78;5059586;28;19940;-78
2023/03/07 11:00:38;;;;;;;;;;;;;;;-144.99;67.32;52448.09;5058703;28;19928;-77
2023/03/07 11:03:04;;;;;;;;;;;;;;;-144.99;67.91;52309.50;5069038;28;19935;-77
2023/03/07 11:05:32;;;;;;;;;;;;;;;-144.99;66.50;52285.03;5067248;28;19928;-77
2023/03/07 11:08:01;;;;;;;;;;;;;;;-144.99;65.80;52276.88;5063769;28;20404;-78
2023/03/07 11:10:32;;;;;;;;;;;;;;;-144.99;64.67;52256.50;5066203;28;19936;-78
2023/03/07 11:12:58;;;;;;;;;;;;;;;-144.99;63.47;52399.19;5067626;28;19956;-77
2023/03/07 11:15:26;;;;;;;;;;;;;;;-144.99;63.12;52252.44;5069717;28;19929;-78
2023/03/07 11:17:53;;;;;;;;;;;;;;;-144.99;61.70;52250.38;5073158;28;20036;-77
2023/03/07 11:20:21;;;;;;;;;;;;;;;-144.99;60.52;52211.66;5067760;28;19928;-78
2023/03/07 11:22:48;;;;;;;;;;;;;;;-144.99;60.23;52258.53;5070909;28;19946;-79
2023/03/07 11:25:19;;;;;;;;;;;;;;;-144.99;59.87;52211.66;5072306;28;19932;-78
2023/03/07 11:27:51;;;;;;;;;;;;;;;-144.99;59.92;52203.50;4719475;28;10000327;-78
2023/03/07 11:30:19;;;;;;;;;;;;;;;-144.99;60.80;52211.66;5072373;28;19924;-79
2023/03/07 11:33:00;;;;;;;;;;;;;;;-144.99;60.64;52329.88;5072475;28;19924;-77
2023/03/07 11:35:34;;;;;;;;;;;;;;;-144.99;61.48;52395.09;5070556;28;20214;-77
2023/03/07 11:38:05;;;;;;;;;;;;;;;-144.99;61.73;52232.03;5071929;28;20415;-78
2023/03/07 11:40:39;;;;;;;;;;;;;;;-144.99;61.35;52386.94;5070257;28;20409;-79
2023/03/07 11:43:12;;;;;;;;;;;;;;;-144.99;61.20;52395.09;5059006;28;19928;-78
2023/03/07 11:45:42;;;;;;;;;;;;;;;-144.99;61.52;52329.88;5064497;28;19931;-78
2023/03/07 11:48:19;;;;;;;;;;;;;;;-144.99;60.79;52423.63;5072576;28;20031;-77
2023/03/07 11:50:49;;;;;;;;;;;;;;;-144.99;61.60;52435.88;5064125;28;20314;-77
2023/03/07 11:53:23;;;;;;;;;;;;;;;-144.99;62.29;52478.66;5071736;28;19971;-78
2023/03/07 11:55:58;;;;;;;;;;;;;;;-144.99;63.30;52439.94;5068746;28;19928;-77
2023/03/07 11:58:36;;;;;;;;;;;;;;;-144.99;63.73;52452.16;5064461;28;20317;-77
2023/03/07 12:01:13;;;;;;;;;;;;;;;-144.99;62.29;52305.41;5056611;28;19924;-78
2023/03/07 12:03:52;;;;;;;;;;;;;;;-144.99;60.82;52195.34;5068079;28;19958;-77
2023/03/07 12:06:25;;;;;;;;;;;;;;;-144.99;60.92;52415.47;5065735;28;19935;-78
2023/03/07 12:09:11;;;;;;;;;;;;;;;-144.99;61.61;52370.63;5085246;28;19956;-77
2023/03/07 12:11:51;;;;;;;;;;;;;;;-144.99;61.42;52213.69;5085054;28;19961;-78
2023/03/07 12:14:23;;;;;;;;;;;;;;;-144.99;59.81;52232.03;5080140;28;20327;-78
2023/03/07 12:16:54;;;;;;;;;;;;;;;-144.99;58.09;52191.28;5070070;28;19928;-78
2023/03/07 12:19:33;;;;;;;;;;;;;;;-144.99;56.83;52280.97;5072340;28;19924;-79
2023/03/07 12:22:11;;;;;;;;;;;;;;;-144.99;58.02;52370.63;5088198;28;19940;-78
2023/03/07 12:24:39;;;;;;;;;;;;;;;-144.99;59.32;52272.81;5066302;28;19996;-78
2023/03/07 12:27:11;;;;;;;;;;;;;;;-144.99;60.35;52435.88;5065428;28;20009;-78